sensor_id;sensor_type;location;lat;lon;timestamp;P1;durP1;ratioP1;P2;durP2;ratioP2
58250;SDS011;51449;51.676;5.812;2023-11-19T00:00:52;7.83;;;6.90;;
58250;SDS011;51449;51.676;5.812;2023-11-19T00:03:14;9.50;;;7.27;;
58250;SDS011;51449;51.676;5.812;2023-11-19T00:05:36;8.17;;;7.03;;
58250;SDS011;51449;51.676;5.812;2023-11-19T00:07:58;8.47;;;7.10;;
58250;SDS011;51449;51.676;5.812;2023-11-19T00:10:20;9.03;;;7.47;;
58250;SDS011;51449;51.676;5.812;2023-11-19T00:12:43;9.37;;;6.63;;
58250;SDS011;51449;51.676;5.812;2023-11-19T00:15:08;7.37;;;6.67;;
58250;SDS011;51449;51.676;5.812;2023-11-19T00:17:33;7.33;;;6.60;;
58250;SDS011;51449;51.676;5.812;2023-11-19T00:19:55;8.87;;;7.97;;
58250;SDS011;51449;51.676;5.812;2023-11-19T00:22:17;9.60;;;7.60;;
58250;SDS011;51449;51.676;5.812;2023-11-19T00:24:38;9.60;;;7.87;;
58250;SDS011;51449;51.676;5.812;2023-11-19T00:27:00;9.90;;;7.20;;
58250;SDS011;51449;51.676;5.812;2023-11-19T00:29:22;12.93;;;8.93;;
58250;SDS011;51449;51.676;5.812;2023-11-19T00:31:44;11.90;;;8.83;;
58250;SDS011;51449;51.676;5.812;2023-11-19T00:34:06;12.50;;;8.23;;
58250;SDS011;51449;51.676;5.812;2023-11-19T00:36:28;11.13;;;8.77;;
58250;SDS011;51449;51.676;5.812;2023-11-19T00:38:50;10.03;;;7.97;;
58250;SDS011;51449;51.676;5.812;2023-11-19T00:41:14;10.18;;;7.70;;
58250;SDS011;51449;51.676;5.812;2023-11-19T00:43:38;8.57;;;7.15;;
58250;SDS011;51449;51.676;5.812;2023-11-19T00:45:59;9.17;;;7.67;;
58250;SDS011;51449;51.676;5.812;2023-11-19T00:48:22;9.10;;;7.73;;
58250;SDS011;51449;51.676;5.812;2023-11-19T00:50:44;10.37;;;8.87;;
58250;SDS011;51449;51.676;5.812;2023-11-19T00:53:07;11.10;;;8.37;;
58250;SDS011;51449;51.676;5.812;2023-11-19T00:55:28;10.13;;;7.47;;
58250;SDS011;51449;51.676;5.812;2023-11-19T00:57:50;9.13;;;7.67;;
58250;SDS011;51449;51.676;5.812;2023-11-19T01:00:12;11.17;;;7.87;;
58250;SDS011;51449;51.676;5.812;2023-11-19T01:02:41;9.37;;;6.57;;
58250;SDS011;51449;51.676;5.812;2023-11-19T01:05:03;13.20;;;6.63;;
58250;SDS011;51449;51.676;5.812;2023-11-19T01:07:25;11.80;;;7.00;;
58250;SDS011;51449;51.676;5.812;2023-11-19T01:09:48;10.87;;;6.80;;
58250;SDS011;51449;51.676;5.812;2023-11-19T01:12:10;14.27;;;7.47;;
58250;SDS011;51449;51.676;5.812;2023-11-19T01:14:32;11.60;;;6.70;;
58250;SDS011;51449;51.676;5.812;2023-11-19T01:16:54;11.97;;;6.43;;
58250;SDS011;51449;51.676;5.812;2023-11-19T01:19:16;9.80;;;6.60;;
58250;SDS011;51449;51.676;5.812;2023-11-19T01:21:38;10.23;;;6.77;;
58250;SDS011;51449;51.676;5.812;2023-11-19T01:24:00;10.77;;;6.57;;
58250;SDS011;51449;51.676;5.812;2023-11-19T01:26:23;9.03;;;6.13;;
58250;SDS011;51449;51.676;5.812;2023-11-19T01:28:45;9.90;;;5.50;;
58250;SDS011;51449;51.676;5.812;2023-11-19T01:31:11;12.63;;;6.37;;
58250;SDS011;51449;51.676;5.812;2023-11-19T01:33:38;9.55;;;5.50;;
58250;SDS011;51449;51.676;5.812;2023-11-19T01:36:01;12.70;;;6.23;;
58250;SDS011;51449;51.676;5.812;2023-11-19T01:38:23;10.03;;;5.63;;
58250;SDS011;51449;51.676;5.812;2023-11-19T01:40:45;9.70;;;5.40;;
58250;SDS011;51449;51.676;5.812;2023-11-19T01:43:07;12.17;;;5.00;;
58250;SDS011;51449;51.676;5.812;2023-11-19T01:45:32;11.07;;;4.33;;
58250;SDS011;51449;51.676;5.812;2023-11-19T01:47:55;14.73;;;5.73;;
58250;SDS011;51449;51.676;5.812;2023-11-19T01:50:17;11.90;;;4.53;;
58250;SDS011;51449;51.676;5.812;2023-11-19T01:52:39;11.50;;;4.27;;
58250;SDS011;51449;51.676;5.812;2023-11-19T01:55:01;11.03;;;5.10;;
58250;SDS011;51449;51.676;5.812;2023-11-19T01:57:23;10.00;;;4.07;;
58250;SDS011;51449;51.676;5.812;2023-11-19T01:59:45;10.43;;;4.87;;
58250;SDS011;51449;51.676;5.812;2023-11-19T02:02:07;10.93;;;4.73;;
58250;SDS011;51449;51.676;5.812;2023-11-19T02:04:29;6.97;;;3.40;;
58250;SDS011;51449;51.676;5.812;2023-11-19T02:06:51;11.90;;;4.77;;
58250;SDS011;51449;51.676;5.812;2023-11-19T02:09:20;9.50;;;4.03;;
58250;SDS011;51449;51.676;5.812;2023-11-19T02:11:42;8.13;;;3.57;;
58250;SDS011;51449;51.676;5.812;2023-11-19T02:14:04;9.80;;;3.47;;
58250;SDS011;51449;51.676;5.812;2023-11-19T02:16:26;8.40;;;3.60;;
58250;SDS011;51449;51.676;5.812;2023-11-19T02:18:49;9.77;;;4.40;;
58250;SDS011;51449;51.676;5.812;2023-11-19T02:21:11;9.20;;;3.70;;
58250;SDS011;51449;51.676;5.812;2023-11-19T02:23:33;10.73;;;4.00;;
58250;SDS011;51449;51.676;5.812;2023-11-19T02:28:23;9.90;;;4.27;;
58250;SDS011;51449;51.676;5.812;2023-11-19T02:30:45;9.70;;;4.60;;
58250;SDS011;51449;51.676;5.812;2023-11-19T02:33:07;11.00;;;3.87;;
58250;SDS011;51449;51.676;5.812;2023-11-19T02:35:31;11.57;;;3.40;;
58250;SDS011;51449;51.676;5.812;2023-11-19T02:37:57;11.27;;;3.80;;
58250;SDS011;51449;51.676;5.812;2023-11-19T02:40:25;10.83;;;3.70;;
58250;SDS011;51449;51.676;5.812;2023-11-19T02:42:47;14.43;;;4.93;;
58250;SDS011;51449;51.676;5.812;2023-11-19T02:45:09;16.90;;;4.10;;
58250;SDS011;51449;51.676;5.812;2023-11-19T02:47:35;12.67;;;4.30;;
58250;SDS011;51449;51.676;5.812;2023-11-19T02:49:57;11.50;;;4.50;;
58250;SDS011;51449;51.676;5.812;2023-11-19T02:52:19;9.83;;;3.87;;
58250;SDS011;51449;51.676;5.812;2023-11-19T02:54:42;11.57;;;4.40;;
58250;SDS011;51449;51.676;5.812;2023-11-19T02:57:05;13.57;;;4.17;;
58250;SDS011;51449;51.676;5.812;2023-11-19T02:59:27;11.97;;;3.60;;
58250;SDS011;51449;51.676;5.812;2023-11-19T03:01:49;14.97;;;4.97;;
58250;SDS011;51449;51.676;5.812;2023-11-19T03:04:12;12.43;;;3.97;;
58250;SDS011;51449;51.676;5.812;2023-11-19T03:06:34;10.37;;;3.33;;
58250;SDS011;51449;51.676;5.812;2023-11-19T03:08:56;12.67;;;3.67;;
58250;SDS011;51449;51.676;5.812;2023-11-19T03:11:17;12.00;;;4.40;;
58250;SDS011;51449;51.676;5.812;2023-11-19T03:13:39;12.30;;;4.73;;
58250;SDS011;51449;51.676;5.812;2023-11-19T03:16:01;17.23;;;4.83;;
58250;SDS011;51449;51.676;5.812;2023-11-19T03:18:23;16.90;;;4.93;;
58250;SDS011;51449;51.676;5.812;2023-11-19T03:20:46;11.30;;;3.73;;
58250;SDS011;51449;51.676;5.812;2023-11-19T03:23:08;17.37;;;4.97;;
58250;SDS011;51449;51.676;5.812;2023-11-19T03:25:30;12.80;;;4.20;;
58250;SDS011;51449;51.676;5.812;2023-11-19T03:27:55;18.47;;;4.77;;
58250;SDS011;51449;51.676;5.812;2023-11-19T03:30:17;15.83;;;4.13;;
58250;SDS011;51449;51.676;5.812;2023-11-19T03:32:39;15.73;;;4.00;;
58250;SDS011;51449;51.676;5.812;2023-11-19T03:35:01;11.87;;;3.17;;
58250;SDS011;51449;51.676;5.812;2023-11-19T03:37:28;18.63;;;3.97;;
58250;SDS011;51449;51.676;5.812;2023-11-19T03:39:50;20.07;;;3.77;;
58250;SDS011;51449;51.676;5.812;2023-11-19T03:42:12;18.70;;;4.50;;
58250;SDS011;51449;51.676;5.812;2023-11-19T03:44:34;14.77;;;4.13;;
58250;SDS011;51449;51.676;5.812;2023-11-19T03:46:56;13.47;;;3.47;;
58250;SDS011;51449;51.676;5.812;2023-11-19T03:49:18;17.57;;;4.43;;
58250;SDS011;51449;51.676;5.812;2023-11-19T03:51:39;18.20;;;4.17;;
58250;SDS011;51449;51.676;5.812;2023-11-19T03:54:02;17.73;;;4.33;;
58250;SDS011;51449;51.676;5.812;2023-11-19T03:56:24;19.90;;;4.10;;
58250;SDS011;51449;51.676;5.812;2023-11-19T03:58:46;14.17;;;3.43;;
58250;SDS011;51449;51.676;5.812;2023-11-19T04:01:11;17.80;;;4.40;;
58250;SDS011;51449;51.676;5.812;2023-11-19T04:03:35;18.73;;;4.40;;
58250;SDS011;51449;51.676;5.812;2023-11-19T04:05:56;24.20;;;4.67;;
58250;SDS011;51449;51.676;5.812;2023-11-19T04:08:19;14.33;;;3.50;;
58250;SDS011;51449;51.676;5.812;2023-11-19T04:10:41;14.77;;;3.20;;
58250;SDS011;51449;51.676;5.812;2023-11-19T04:13:03;17.47;;;3.87;;
58250;SDS011;51449;51.676;5.812;2023-11-19T04:15:25;16.87;;;4.00;;
58250;SDS011;51449;51.676;5.812;2023-11-19T04:17:46;20.60;;;3.53;;
58250;SDS011;51449;51.676;5.812;2023-11-19T04:20:08;17.67;;;2.87;;
58250;SDS011;51449;51.676;5.812;2023-11-19T04:22:34;20.20;;;3.77;;
58250;SDS011;51449;51.676;5.812;2023-11-19T04:24:56;16.20;;;3.00;;
58250;SDS011;51449;51.676;5.812;2023-11-19T04:27:18;16.60;;;3.57;;
58250;SDS011;51449;51.676;5.812;2023-11-19T04:29:39;17.13;;;4.10;;
58250;SDS011;51449;51.676;5.812;2023-11-19T04:32:01;23.87;;;4.83;;
58250;SDS011;51449;51.676;5.812;2023-11-19T04:34:23;14.20;;;3.90;;
58250;SDS011;51449;51.676;5.812;2023-11-19T04:36:45;14.77;;;4.57;;
58250;SDS011;51449;51.676;5.812;2023-11-19T04:39:07;16.40;;;3.43;;
58250;SDS011;51449;51.676;5.812;2023-11-19T04:41:49;14.70;;;2.50;;
58250;SDS011;51449;51.676;5.812;2023-11-19T04:46:37;11.77;;;3.00;;
58250;SDS011;51449;51.676;5.812;2023-11-19T04:48:59;16.30;;;4.23;;
58250;SDS011;51449;51.676;5.812;2023-11-19T04:51:20;17.57;;;3.33;;
58250;SDS011;51449;51.676;5.812;2023-11-19T04:53:42;19.97;;;3.13;;
58250;SDS011;51449;51.676;5.812;2023-11-19T04:56:10;14.57;;;3.27;;
58250;SDS011;51449;51.676;5.812;2023-11-19T04:58:33;17.63;;;3.87;;
58250;SDS011;51449;51.676;5.812;2023-11-19T05:00:55;24.03;;;4.47;;
58250;SDS011;51449;51.676;5.812;2023-11-19T05:03:17;13.37;;;3.03;;
58250;SDS011;51449;51.676;5.812;2023-11-19T05:05:39;17.23;;;2.80;;
58250;SDS011;51449;51.676;5.812;2023-11-19T05:08:01;18.07;;;2.93;;
58250;SDS011;51449;51.676;5.812;2023-11-19T05:10:23;16.23;;;3.20;;
58250;SDS011;51449;51.676;5.812;2023-11-19T05:12:46;19.53;;;4.63;;
58250;SDS011;51449;51.676;5.812;2023-11-19T05:15:08;16.70;;;3.30;;
58250;SDS011;51449;51.676;5.812;2023-11-19T05:17:30;17.13;;;3.23;;
58250;SDS011;51449;51.676;5.812;2023-11-19T05:19:52;17.43;;;3.87;;
58250;SDS011;51449;51.676;5.812;2023-11-19T05:22:14;13.63;;;3.03;;
58250;SDS011;51449;51.676;5.812;2023-11-19T05:24:35;22.07;;;3.07;;
58250;SDS011;51449;51.676;5.812;2023-11-19T05:26:57;14.27;;;3.97;;
58250;SDS011;51449;51.676;5.812;2023-11-19T05:29:19;25.60;;;4.73;;
58250;SDS011;51449;51.676;5.812;2023-11-19T05:31:41;18.47;;;3.77;;
58250;SDS011;51449;51.676;5.812;2023-11-19T05:34:05;17.58;;;3.88;;
58250;SDS011;51449;51.676;5.812;2023-11-19T05:36:28;19.93;;;4.00;;
58250;SDS011;51449;51.676;5.812;2023-11-19T05:38:51;17.30;;;2.97;;
58250;SDS011;51449;51.676;5.812;2023-11-19T05:41:12;15.73;;;3.40;;
58250;SDS011;51449;51.676;5.812;2023-11-19T05:43:34;20.87;;;4.23;;
58250;SDS011;51449;51.676;5.812;2023-11-19T05:45:56;18.83;;;3.53;;
58250;SDS011;51449;51.676;5.812;2023-11-19T05:48:18;14.73;;;3.13;;
58250;SDS011;51449;51.676;5.812;2023-11-19T05:50:40;21.70;;;4.07;;
58250;SDS011;51449;51.676;5.812;2023-11-19T05:53:02;18.93;;;4.37;;
58250;SDS011;51449;51.676;5.812;2023-11-19T05:55:26;20.00;;;3.73;;
58250;SDS011;51449;51.676;5.812;2023-11-19T05:57:49;10.93;;;3.40;;
58250;SDS011;51449;51.676;5.812;2023-11-19T06:00:13;18.67;;;3.78;;
58250;SDS011;51449;51.676;5.812;2023-11-19T06:02:37;27.33;;;3.72;;
58250;SDS011;51449;51.676;5.812;2023-11-19T06:05:00;19.00;;;3.63;;
58250;SDS011;51449;51.676;5.812;2023-11-19T06:07:22;20.40;;;3.50;;
58250;SDS011;51449;51.676;5.812;2023-11-19T06:09:44;24.17;;;4.53;;
58250;SDS011;51449;51.676;5.812;2023-11-19T06:12:06;16.47;;;2.87;;
58250;SDS011;51449;51.676;5.812;2023-11-19T06:14:28;20.13;;;2.67;;
58250;SDS011;51449;51.676;5.812;2023-11-19T06:16:50;18.37;;;3.70;;
58250;SDS011;51449;51.676;5.812;2023-11-19T06:19:13;20.47;;;3.33;;
58250;SDS011;51449;51.676;5.812;2023-11-19T06:21:36;9.00;;;2.50;;
58250;SDS011;51449;51.676;5.812;2023-11-19T06:23:58;18.37;;;3.03;;
58250;SDS011;51449;51.676;5.812;2023-11-19T06:26:20;20.10;;;3.50;;
58250;SDS011;51449;51.676;5.812;2023-11-19T06:28:43;21.50;;;3.47;;
58250;SDS011;51449;51.676;5.812;2023-11-19T06:31:06;10.13;;;1.80;;
58250;SDS011;51449;51.676;5.812;2023-11-19T06:33:27;22.30;;;3.30;;
58250;SDS011;51449;51.676;5.812;2023-11-19T06:35:49;14.23;;;4.07;;
58250;SDS011;51449;51.676;5.812;2023-11-19T06:38:11;21.13;;;3.70;;
58250;SDS011;51449;51.676;5.812;2023-11-19T06:40:33;11.97;;;3.10;;
58250;SDS011;51449;51.676;5.812;2023-11-19T06:42:59;27.23;;;3.40;;
58250;SDS011;51449;51.676;5.812;2023-11-19T06:45:21;18.30;;;3.10;;
58250;SDS011;51449;51.676;5.812;2023-11-19T06:47:44;19.07;;;3.10;;
58250;SDS011;51449;51.676;5.812;2023-11-19T06:50:06;16.77;;;3.33;;
58250;SDS011;51449;51.676;5.812;2023-11-19T06:52:29;26.20;;;3.80;;
58250;SDS011;51449;51.676;5.812;2023-11-19T06:54:52;19.23;;;3.13;;
58250;SDS011;51449;51.676;5.812;2023-11-19T06:57:14;16.93;;;3.53;;
58250;SDS011;51449;51.676;5.812;2023-11-19T06:59:35;18.17;;;3.13;;
58250;SDS011;51449;51.676;5.812;2023-11-19T07:01:57;24.10;;;4.13;;
58250;SDS011;51449;51.676;5.812;2023-11-19T07:04:19;18.70;;;3.13;;
58250;SDS011;51449;51.676;5.812;2023-11-19T07:06:41;14.70;;;3.73;;
58250;SDS011;51449;51.676;5.812;2023-11-19T07:09:03;13.77;;;2.77;;
58250;SDS011;51449;51.676;5.812;2023-11-19T07:11:31;21.37;;;2.63;;
58250;SDS011;51449;51.676;5.812;2023-11-19T07:13:53;11.30;;;2.50;;
58250;SDS011;51449;51.676;5.812;2023-11-19T07:16:15;24.13;;;3.43;;
58250;SDS011;51449;51.676;5.812;2023-11-19T07:18:37;25.77;;;3.57;;
58250;SDS011;51449;51.676;5.812;2023-11-19T07:20:59;13.53;;;2.53;;
58250;SDS011;51449;51.676;5.812;2023-11-19T07:23:21;20.37;;;3.83;;
58250;SDS011;51449;51.676;5.812;2023-11-19T07:25:43;17.83;;;2.60;;
58250;SDS011;51449;51.676;5.812;2023-11-19T07:28:08;19.97;;;4.40;;
58250;SDS011;51449;51.676;5.812;2023-11-19T07:30:31;20.43;;;3.63;;
58250;SDS011;51449;51.676;5.812;2023-11-19T07:32:53;21.23;;;3.93;;
58250;SDS011;51449;51.676;5.812;2023-11-19T07:35:14;19.90;;;2.90;;
58250;SDS011;51449;51.676;5.812;2023-11-19T07:37:40;17.97;;;3.43;;
58250;SDS011;51449;51.676;5.812;2023-11-19T07:40:02;18.63;;;2.60;;
58250;SDS011;51449;51.676;5.812;2023-11-19T07:42:24;16.20;;;3.50;;
58250;SDS011;51449;51.676;5.812;2023-11-19T07:44:46;15.17;;;3.33;;
58250;SDS011;51449;51.676;5.812;2023-11-19T07:47:08;13.87;;;2.83;;
58250;SDS011;51449;51.676;5.812;2023-11-19T07:49:30;16.87;;;3.70;;
58250;SDS011;51449;51.676;5.812;2023-11-19T07:51:52;22.43;;;3.80;;
58250;SDS011;51449;51.676;5.812;2023-11-19T07:54:14;19.80;;;3.50;;
58250;SDS011;51449;51.676;5.812;2023-11-19T07:56:36;23.37;;;3.60;;
58250;SDS011;51449;51.676;5.812;2023-11-19T07:58:57;25.40;;;4.00;;
58250;SDS011;51449;51.676;5.812;2023-11-19T08:01:19;16.50;;;2.80;;
58250;SDS011;51449;51.676;5.812;2023-11-19T08:03:41;15.93;;;3.30;;
58250;SDS011;51449;51.676;5.812;2023-11-19T08:06:19;21.27;;;3.87;;
58250;SDS011;51449;51.676;5.812;2023-11-19T08:08:42;21.27;;;3.20;;
58250;SDS011;51449;51.676;5.812;2023-11-19T08:11:04;30.87;;;4.63;;
58250;SDS011;51449;51.676;5.812;2023-11-19T08:13:26;20.70;;;3.13;;
58250;SDS011;51449;51.676;5.812;2023-11-19T08:15:48;18.13;;;3.03;;
58250;SDS011;51449;51.676;5.812;2023-11-19T08:18:10;21.33;;;4.50;;
58250;SDS011;51449;51.676;5.812;2023-11-19T08:20:32;21.57;;;4.27;;
58250;SDS011;51449;51.676;5.812;2023-11-19T08:22:54;13.27;;;3.23;;
58250;SDS011;51449;51.676;5.812;2023-11-19T08:25:16;15.27;;;3.07;;
58250;SDS011;51449;51.676;5.812;2023-11-19T08:27:38;23.00;;;5.23;;
58250;SDS011;51449;51.676;5.812;2023-11-19T08:29:59;21.77;;;3.77;;
58250;SDS011;51449;51.676;5.812;2023-11-19T08:32:21;19.53;;;3.53;;
58250;SDS011;51449;51.676;5.812;2023-11-19T08:34:46;17.37;;;3.17;;
58250;SDS011;51449;51.676;5.812;2023-11-19T08:37:08;19.47;;;3.07;;
58250;SDS011;51449;51.676;5.812;2023-11-19T08:39:30;30.00;;;4.57;;
58250;SDS011;51449;51.676;5.812;2023-11-19T08:41:52;22.23;;;3.63;;
58250;SDS011;51449;51.676;5.812;2023-11-19T08:44:14;18.73;;;3.60;;
58250;SDS011;51449;51.676;5.812;2023-11-19T08:46:36;16.17;;;2.83;;
58250;SDS011;51449;51.676;5.812;2023-11-19T08:48:57;23.90;;;4.20;;
58250;SDS011;51449;51.676;5.812;2023-11-19T08:51:19;16.43;;;3.30;;
58250;SDS011;51449;51.676;5.812;2023-11-19T08:53:41;21.87;;;4.63;;
58250;SDS011;51449;51.676;5.812;2023-11-19T08:56:03;19.50;;;3.63;;
58250;SDS011;51449;51.676;5.812;2023-11-19T08:58:25;19.53;;;3.77;;
58250;SDS011;51449;51.676;5.812;2023-11-19T09:00:47;23.90;;;3.83;;
58250;SDS011;51449;51.676;5.812;2023-11-19T09:03:09;13.63;;;2.53;;
58250;SDS011;51449;51.676;5.812;2023-11-19T09:05:31;20.47;;;3.57;;
58250;SDS011;51449;51.676;5.812;2023-11-19T09:07:53;15.57;;;3.73;;
58250;SDS011;51449;51.676;5.812;2023-11-19T09:10:15;25.87;;;3.93;;
58250;SDS011;51449;51.676;5.812;2023-11-19T09:12:37;18.70;;;3.57;;
58250;SDS011;51449;51.676;5.812;2023-11-19T09:14:59;18.67;;;3.43;;
58250;SDS011;51449;51.676;5.812;2023-11-19T09:17:21;20.07;;;5.73;;
58250;SDS011;51449;51.676;5.812;2023-11-19T09:19:43;17.43;;;3.23;;
58250;SDS011;51449;51.676;5.812;2023-11-19T09:22:04;24.03;;;3.13;;
58250;SDS011;51449;51.676;5.812;2023-11-19T09:24:26;20.07;;;3.13;;
58250;SDS011;51449;51.676;5.812;2023-11-19T09:26:48;23.97;;;4.00;;
58250;SDS011;51449;51.676;5.812;2023-11-19T09:29:10;17.60;;;3.47;;
58250;SDS011;51449;51.676;5.812;2023-11-19T09:31:33;25.17;;;3.80;;
58250;SDS011;51449;51.676;5.812;2023-11-19T09:33:54;19.73;;;4.03;;
58250;SDS011;51449;51.676;5.812;2023-11-19T09:36:16;19.63;;;3.30;;
58250;SDS011;51449;51.676;5.812;2023-11-19T09:38:38;20.23;;;4.17;;
58250;SDS011;51449;51.676;5.812;2023-11-19T09:41:00;16.00;;;4.07;;
58250;SDS011;51449;51.676;5.812;2023-11-19T09:43:23;28.70;;;4.90;;
58250;SDS011;51449;51.676;5.812;2023-11-19T09:48:12;23.80;;;4.43;;
58250;SDS011;51449;51.676;5.812;2023-11-19T09:50:34;27.67;;;4.67;;
58250;SDS011;51449;51.676;5.812;2023-11-19T09:52:56;20.00;;;3.27;;
58250;SDS011;51449;51.676;5.812;2023-11-19T09:55:18;20.43;;;3.87;;
58250;SDS011;51449;51.676;5.812;2023-11-19T09:57:41;18.63;;;3.50;;
58250;SDS011;51449;51.676;5.812;2023-11-19T10:00:06;17.33;;;3.38;;
58250;SDS011;51449;51.676;5.812;2023-11-19T10:02:34;21.50;;;4.03;;
58250;SDS011;51449;51.676;5.812;2023-11-19T10:04:58;15.75;;;3.20;;
58250;SDS011;51449;51.676;5.812;2023-11-19T10:07:27;20.53;;;4.03;;
58250;SDS011;51449;51.676;5.812;2023-11-19T10:09:48;21.53;;;3.73;;
58250;SDS011;51449;51.676;5.812;2023-11-19T10:12:10;20.27;;;4.33;;
58250;SDS011;51449;51.676;5.812;2023-11-19T10:14:32;19.70;;;4.73;;
58250;SDS011;51449;51.676;5.812;2023-11-19T10:17:01;23.23;;;4.17;;
58250;SDS011;51449;51.676;5.812;2023-11-19T10:19:25;20.73;;;4.10;;
58250;SDS011;51449;51.676;5.812;2023-11-19T10:21:48;14.53;;;3.63;;
58250;SDS011;51449;51.676;5.812;2023-11-19T10:24:10;19.23;;;4.20;;
58250;SDS011;51449;51.676;5.812;2023-11-19T10:26:32;19.23;;;3.67;;
58250;SDS011;51449;51.676;5.812;2023-11-19T10:28:55;20.03;;;4.57;;
58250;SDS011;51449;51.676;5.812;2023-11-19T10:31:18;22.03;;;4.37;;
58250;SDS011;51449;51.676;5.812;2023-11-19T10:33:51;21.90;;;4.40;;
58250;SDS011;51449;51.676;5.812;2023-11-19T10:36:13;16.57;;;4.47;;
58250;SDS011;51449;51.676;5.812;2023-11-19T10:38:36;17.77;;;3.50;;
58250;SDS011;51449;51.676;5.812;2023-11-19T10:40:58;19.20;;;4.13;;
58250;SDS011;51449;51.676;5.812;2023-11-19T10:43:21;23.80;;;5.07;;
58250;SDS011;51449;51.676;5.812;2023-11-19T10:45:44;13.98;;;3.13;;
58250;SDS011;51449;51.676;5.812;2023-11-19T10:48:07;19.23;;;4.07;;
58250;SDS011;51449;51.676;5.812;2023-11-19T10:50:29;17.67;;;4.33;;
58250;SDS011;51449;51.676;5.812;2023-11-19T10:52:52;20.57;;;4.87;;
58250;SDS011;51449;51.676;5.812;2023-11-19T10:55:20;23.73;;;5.70;;
58250;SDS011;51449;51.676;5.812;2023-11-19T10:57:51;23.33;;;4.70;;
58250;SDS011;51449;51.676;5.812;2023-11-19T11:00:19;27.80;;;5.00;;
58250;SDS011;51449;51.676;5.812;2023-11-19T11:02:45;22.13;;;5.07;;
58250;SDS011;51449;51.676;5.812;2023-11-19T11:05:13;14.73;;;3.53;;
58250;SDS011;51449;51.676;5.812;2023-11-19T11:07:36;19.40;;;4.00;;
58250;SDS011;51449;51.676;5.812;2023-11-19T11:10:02;21.47;;;4.27;;
58250;SDS011;51449;51.676;5.812;2023-11-19T11:12:27;24.57;;;4.93;;
58250;SDS011;51449;51.676;5.812;2023-11-19T11:14:51;20.90;;;4.45;;
58250;SDS011;51449;51.676;5.812;2023-11-19T11:19:39;22.50;;;4.30;;
58250;SDS011;51449;51.676;5.812;2023-11-19T11:22:04;16.37;;;3.30;;
58250;SDS011;51449;51.676;5.812;2023-11-19T11:30:55;16.63;;;4.40;;
58250;SDS011;51449;51.676;5.812;2023-11-19T11:33:48;17.47;;;3.57;;
58250;SDS011;51449;51.676;5.812;2023-11-19T11:36:51;15.03;;;3.40;;
58250;SDS011;51449;51.676;5.812;2023-11-19T11:39:28;17.57;;;3.87;;
58250;SDS011;51449;51.676;5.812;2023-11-19T11:42:30;19.98;;;3.85;;
58250;SDS011;51449;51.676;5.812;2023-11-19T11:48:04;16.90;;;3.33;;
58250;SDS011;51449;51.676;5.812;2023-11-19T11:50:18;22.90;;;4.43;;
58250;SDS011;51449;51.676;5.812;2023-11-19T11:58:26;18.05;;;4.10;;
58250;SDS011;51449;51.676;5.812;2023-11-19T12:00:56;13.87;;;3.87;;
58250;SDS011;51449;51.676;5.812;2023-11-19T12:03:21;14.97;;;3.60;;
58250;SDS011;51449;51.676;5.812;2023-11-19T12:05:45;19.38;;;3.45;;
58250;SDS011;51449;51.676;5.812;2023-11-19T12:08:10;18.67;;;4.10;;
58250;SDS011;51449;51.676;5.812;2023-11-19T12:10:43;12.87;;;3.13;;
58250;SDS011;51449;51.676;5.812;2023-11-19T12:13:15;12.73;;;3.13;;
58250;SDS011;51449;51.676;5.812;2023-11-19T12:18:19;8.13;;;2.10;;
58250;SDS011;51449;51.676;5.812;2023-11-19T12:20:41;10.40;;;2.83;;
58250;SDS011;51449;51.676;5.812;2023-11-19T12:23:04;15.73;;;2.83;;
58250;SDS011;51449;51.676;5.812;2023-11-19T12:25:27;12.60;;;2.63;;
58250;SDS011;51449;51.676;5.812;2023-11-19T12:27:56;15.47;;;3.33;;
58250;SDS011;51449;51.676;5.812;2023-11-19T12:30:22;15.03;;;3.07;;
58250;SDS011;51449;51.676;5.812;2023-11-19T12:32:48;12.27;;;2.80;;
58250;SDS011;51449;51.676;5.812;2023-11-19T12:35:11;15.80;;;3.53;;
58250;SDS011;51449;51.676;5.812;2023-11-19T12:37:38;12.32;;;3.20;;
58250;SDS011;51449;51.676;5.812;2023-11-19T12:40:02;10.50;;;2.87;;
58250;SDS011;51449;51.676;5.812;2023-11-19T12:42:35;10.43;;;3.27;;
58250;SDS011;51449;51.676;5.812;2023-11-19T12:44:58;15.95;;;2.95;;
58250;SDS011;51449;51.676;5.812;2023-11-19T12:47:21;14.10;;;3.57;;
58250;SDS011;51449;51.676;5.812;2023-11-19T12:49:43;12.53;;;3.37;;
58250;SDS011;51449;51.676;5.812;2023-11-19T12:52:12;19.80;;;3.23;;
58250;SDS011;51449;51.676;5.812;2023-11-19T12:54:35;13.73;;;3.90;;
58250;SDS011;51449;51.676;5.812;2023-11-19T12:57:00;13.97;;;3.03;;
58250;SDS011;51449;51.676;5.812;2023-11-19T12:59:23;12.27;;;3.00;;
58250;SDS011;51449;51.676;5.812;2023-11-19T13:01:56;13.53;;;3.80;;
58250;SDS011;51449;51.676;5.812;2023-11-19T13:04:19;12.63;;;3.13;;
58250;SDS011;51449;51.676;5.812;2023-11-19T13:06:48;18.60;;;3.67;;
58250;SDS011;51449;51.676;5.812;2023-11-19T13:09:23;12.97;;;3.60;;
58250;SDS011;51449;51.676;5.812;2023-11-19T13:11:46;15.33;;;3.57;;
58250;SDS011;51449;51.676;5.812;2023-11-19T13:14:08;15.27;;;4.00;;
58250;SDS011;51449;51.676;5.812;2023-11-19T13:16:31;12.93;;;3.87;;
58250;SDS011;51449;51.676;5.812;2023-11-19T13:18:54;17.70;;;4.03;;
58250;SDS011;51449;51.676;5.812;2023-11-19T13:21:16;16.17;;;3.97;;
58250;SDS011;51449;51.676;5.812;2023-11-19T13:23:38;17.83;;;3.53;;
58250;SDS011;51449;51.676;5.812;2023-11-19T13:26:00;16.00;;;3.50;;
58250;SDS011;51449;51.676;5.812;2023-11-19T13:28:23;14.63;;;3.80;;
58250;SDS011;51449;51.676;5.812;2023-11-19T13:30:47;14.63;;;3.80;;
58250;SDS011;51449;51.676;5.812;2023-11-19T13:33:09;12.93;;;2.87;;
58250;SDS011;51449;51.676;5.812;2023-11-19T13:35:34;17.15;;;4.40;;
58250;SDS011;51449;51.676;5.812;2023-11-19T13:37:58;16.92;;;3.97;;
58250;SDS011;51449;51.676;5.812;2023-11-19T13:40:20;13.97;;;3.53;;
58250;SDS011;51449;51.676;5.812;2023-11-19T13:42:44;15.30;;;3.53;;
58250;SDS011;51449;51.676;5.812;2023-11-19T13:45:13;14.83;;;2.83;;
58250;SDS011;51449;51.676;5.812;2023-11-19T13:47:36;12.20;;;3.20;;
58250;SDS011;51449;51.676;5.812;2023-11-19T13:50:02;14.10;;;2.90;;
58250;SDS011;51449;51.676;5.812;2023-11-19T13:52:27;13.83;;;2.90;;
58250;SDS011;51449;51.676;5.812;2023-11-19T13:54:49;16.33;;;2.67;;
58250;SDS011;51449;51.676;5.812;2023-11-19T13:57:14;7.93;;;3.03;;
58250;SDS011;51449;51.676;5.812;2023-11-19T13:59:39;9.83;;;3.17;;
58250;SDS011;51449;51.676;5.812;2023-11-19T14:02:03;13.17;;;3.27;;
58250;SDS011;51449;51.676;5.812;2023-11-19T14:04:28;11.90;;;2.37;;
58250;SDS011;51449;51.676;5.812;2023-11-19T14:06:50;12.87;;;3.40;;
58250;SDS011;51449;51.676;5.812;2023-11-19T14:09:12;10.93;;;2.50;;
58250;SDS011;51449;51.676;5.812;2023-11-19T14:11:34;10.00;;;2.77;;
58250;SDS011;51449;51.676;5.812;2023-11-19T14:13:56;10.53;;;2.63;;
58250;SDS011;51449;51.676;5.812;2023-11-19T14:16:18;14.40;;;3.23;;
58250;SDS011;51449;51.676;5.812;2023-11-19T14:18:40;9.23;;;2.20;;
58250;SDS011;51449;51.676;5.812;2023-11-19T14:21:02;16.33;;;2.93;;
58250;SDS011;51449;51.676;5.812;2023-11-19T14:23:25;17.70;;;3.53;;
58250;SDS011;51449;51.676;5.812;2023-11-19T14:25:49;14.05;;;2.97;;
58250;SDS011;51449;51.676;5.812;2023-11-19T14:28:11;12.80;;;3.37;;
58250;SDS011;51449;51.676;5.812;2023-11-19T14:30:33;13.77;;;3.33;;
58250;SDS011;51449;51.676;5.812;2023-11-19T14:32:56;12.03;;;2.30;;
58250;SDS011;51449;51.676;5.812;2023-11-19T14:35:18;15.27;;;2.70;;
58250;SDS011;51449;51.676;5.812;2023-11-19T14:37:41;14.57;;;2.80;;
58250;SDS011;51449;51.676;5.812;2023-11-19T14:40:03;14.13;;;2.97;;